createdAt,value
2023-05-15T00:01:26.610Z,1.60
2023-05-15T00:03:56.001Z,1.93
2023-05-15T00:06:24.180Z,1.60
2023-05-15T00:08:52.339Z,1.93
2023-05-15T00:11:21.441Z,2.90
2023-05-15T00:13:49.569Z,1.80
2023-05-15T00:16:18.120Z,1.53
2023-05-15T00:18:46.910Z,1.60
2023-05-15T00:21:22.380Z,1.80
2023-05-15T00:23:50.520Z,1.70
2023-05-15T00:26:18.525Z,1.60
2023-05-15T00:28:47.061Z,2.10
2023-05-15T00:31:15.214Z,1.70
2023-05-15T00:33:43.306Z,1.30
2023-05-15T00:36:11.455Z,1.67
2023-05-15T00:38:40.911Z,1.67
2023-05-15T00:41:11.188Z,1.67
2023-05-15T00:43:40.701Z,1.40
2023-05-15T00:46:09.030Z,1.90
2023-05-15T00:48:37.864Z,1.70
2023-05-15T00:51:06.358Z,1.47
2023-05-15T00:53:34.692Z,1.60
2023-05-15T00:56:06.788Z,1.57
2023-05-15T00:58:35.534Z,1.67
2023-05-15T01:01:04.770Z,1.70
2023-05-15T01:03:34.453Z,1.60
2023-05-15T01:06:02.525Z,1.67
2023-05-15T01:08:39.277Z,1.77
2023-05-15T01:11:10.305Z,2.27
2023-05-15T01:13:38.441Z,1.67
2023-05-15T01:16:07.453Z,2.40
2023-05-15T01:18:36.424Z,1.80
2023-05-15T01:21:22.108Z,2.43
2023-05-15T01:24:05.258Z,2.30
2023-05-15T01:26:59.291Z,1.90
2023-05-15T01:29:33.656Z,1.83
2023-05-15T01:32:07.686Z,1.70
2023-05-15T01:34:43.954Z,1.97
2023-05-15T01:37:14.920Z,1.50
2023-05-15T01:39:45.969Z,1.60
2023-05-15T01:42:20.401Z,1.77
2023-05-15T01:44:56.252Z,2.03
2023-05-15T01:47:30.374Z,1.73
2023-05-15T01:50:02.863Z,1.50
2023-05-15T01:52:35.418Z,1.90
2023-05-15T01:55:05.482Z,2.00
2023-05-15T01:57:36.135Z,1.83
2023-05-15T02:00:06.869Z,1.63
2023-05-15T02:02:43.230Z,1.80
2023-05-15T02:05:13.217Z,1.93
2023-05-15T02:07:43.357Z,1.80
2023-05-15T02:10:12.608Z,2.00
2023-05-15T02:12:42.090Z,2.10
2023-05-15T02:15:13.065Z,1.83
2023-05-15T02:17:42.345Z,1.87
2023-05-15T02:20:11.597Z,2.03
2023-05-15T02:22:39.736Z,2.03
2023-05-15T02:25:08.251Z,1.90
2023-05-15T02:27:45.578Z,1.90
2023-05-15T02:30:39.366Z,1.83
2023-05-15T02:33:15.799Z,2.23
2023-05-15T02:35:49.416Z,2.10
2023-05-15T02:38:19.968Z,1.90
2023-05-15T02:40:49.616Z,2.03
2023-05-15T02:43:19.746Z,1.67
2023-05-15T02:45:50.715Z,2.20
2023-05-15T02:48:20.710Z,1.50
2023-05-15T02:50:48.824Z,1.93
2023-05-15T02:53:16.869Z,2.03
2023-05-15T02:55:45.100Z,2.23
2023-05-15T02:58:13.262Z,2.20
2023-05-15T03:00:41.369Z,2.00
2023-05-15T03:03:10.792Z,1.80
2023-05-15T03:05:38.933Z,2.07
2023-05-15T03:08:07.296Z,1.67
2023-05-15T03:10:35.398Z,1.97
2023-05-15T03:13:04.004Z,2.07
2023-05-15T03:15:32.111Z,2.30
2023-05-15T03:18:00.246Z,1.90
2023-05-15T03:20:29.816Z,1.80
2023-05-15T03:22:57.940Z,2.17
2023-05-15T03:25:26.244Z,2.33
2023-05-15T03:27:54.721Z,2.20
2023-05-15T03:30:22.889Z,1.27
2023-05-15T03:32:50.955Z,1.47
2023-05-15T03:35:19.244Z,1.30
2023-05-15T03:37:54.500Z,1.40
2023-05-15T03:40:22.914Z,1.20
2023-05-15T03:42:53.400Z,2.10
2023-05-15T03:45:22.144Z,1.67
2023-05-15T03:47:50.326Z,2.23
2023-05-15T03:50:19.129Z,2.07
2023-05-15T03:52:47.314Z,1.83
2023-05-15T03:55:16.957Z,1.60
2023-05-15T03:57:45.112Z,2.10
2023-05-15T04:00:15.512Z,2.30
2023-05-15T04:02:45.432Z,2.30
2023-05-15T04:05:13.895Z,1.87
2023-05-15T04:07:41.958Z,2.03
2023-05-15T04:10:10.196Z,2.37
2023-05-15T04:12:39.626Z,2.40
2023-05-15T04:15:18.300Z,2.60
2023-05-15T04:17:47.676Z,2.40
2023-05-15T04:20:17.551Z,2.60
2023-05-15T04:22:46.459Z,2.17
2023-05-15T04:25:16.066Z,2.40
2023-05-15T04:27:46.089Z,1.93
2023-05-15T04:30:15.275Z,2.67
2023-05-15T04:32:44.075Z,2.40
2023-05-15T04:35:13.759Z,2.37
2023-05-15T04:37:42.727Z,2.23
2023-05-15T04:40:11.240Z,2.30
2023-05-15T04:42:39.905Z,2.60
2023-05-15T04:45:10.317Z,2.33
2023-05-15T04:47:38.682Z,2.50
2023-05-15T04:50:07.737Z,2.50
2023-05-15T04:52:35.799Z,3.03
2023-05-15T04:55:03.916Z,2.10
2023-05-15T04:57:31.936Z,2.30
2023-05-15T05:00:00.014Z,2.60
2023-05-15T05:02:29.399Z,2.20
2023-05-15T05:04:57.419Z,2.27
2023-05-15T05:07:25.472Z,2.20
2023-05-15T05:09:53.537Z,2.07
2023-05-15T05:12:21.646Z,1.50
2023-05-15T05:14:49.634Z,2.77
2023-05-15T05:17:17.918Z,1.87
2023-05-15T05:19:47.260Z,2.50
2023-05-15T05:22:15.307Z,2.43
2023-05-15T05:24:43.551Z,3.00
2023-05-15T05:27:11.784Z,2.40
2023-05-15T05:29:40.009Z,3.00
2023-05-15T05:32:08.733Z,2.53
2023-05-15T05:34:36.940Z,2.77
2023-05-15T05:37:06.587Z,3.20
2023-05-15T05:39:34.905Z,3.23
2023-05-15T05:42:02.999Z,4.20
2023-05-15T05:44:31.113Z,4.40
2023-05-15T05:46:59.295Z,4.30
2023-05-15T05:49:27.472Z,3.90
2023-05-15T05:51:55.471Z,4.30
2023-05-15T05:54:24.886Z,4.10
2023-05-15T05:56:52.892Z,3.67
2023-05-15T05:59:20.968Z,3.30
2023-05-15T06:01:50.857Z,3.47
2023-05-15T06:04:21.197Z,4.23
2023-05-15T06:06:50.194Z,4.10
2023-05-15T06:09:18.637Z,3.40
2023-05-15T06:11:48.067Z,5.70
2023-05-15T06:14:16.185Z,3.97
2023-05-15T06:16:44.318Z,3.67
2023-05-15T06:19:12.502Z,3.60
2023-05-15T06:21:40.719Z,4.60
2023-05-15T06:24:08.938Z,4.40
2023-05-15T06:26:37.303Z,4.07
2023-05-15T06:29:06.725Z,5.07
2023-05-15T06:31:34.881Z,4.53
2023-05-15T06:34:02.974Z,4.37
2023-05-15T06:36:31.107Z,4.20
2023-05-15T06:38:59.237Z,4.30
2023-05-15T06:41:27.360Z,3.33
2023-05-15T06:43:55.864Z,3.67
2023-05-15T06:46:25.498Z,5.10
2023-05-15T06:48:53.679Z,4.27
2023-05-15T06:51:21.935Z,4.33
2023-05-15T06:53:49.966Z,3.80
2023-05-15T06:56:18.056Z,3.77
2023-05-15T06:58:46.132Z,4.20
2023-05-15T07:01:14.162Z,4.10
2023-05-15T07:03:44.007Z,4.10
2023-05-15T07:06:12.060Z,4.03
2023-05-15T07:08:40.178Z,3.60
2023-05-15T07:11:08.284Z,2.93
2023-05-15T07:13:36.569Z,4.00
2023-05-15T07:16:05.044Z,3.00
2023-05-15T07:18:33.275Z,3.77
2023-05-15T07:21:02.759Z,3.90
2023-05-15T07:23:30.876Z,3.80
2023-05-15T07:25:58.934Z,3.30
2023-05-15T07:28:27.091Z,3.13
2023-05-15T07:30:55.110Z,3.23
2023-05-15T07:33:23.142Z,3.30
2023-05-15T07:35:52.057Z,3.70
2023-05-15T07:38:21.447Z,3.40
2023-05-15T07:40:49.560Z,3.83
2023-05-15T07:43:17.617Z,3.93
2023-05-15T07:45:46.002Z,3.20
2023-05-15T07:48:19.289Z,3.87
2023-05-15T07:50:48.397Z,3.07
2023-05-15T07:53:17.098Z,3.47
2023-05-15T07:55:47.257Z,4.20
2023-05-15T07:58:15.510Z,4.33
2023-05-15T08:00:43.502Z,3.53
2023-05-15T08:03:12.230Z,4.10
2023-05-15T08:05:40.364Z,3.93
2023-05-15T08:08:08.349Z,3.80
2023-05-15T08:10:36.405Z,4.43
2023-05-15T08:13:05.771Z,3.60
2023-05-15T08:15:33.973Z,4.47
2023-05-15T08:18:02.228Z,4.20
2023-05-15T08:20:31.485Z,3.60
2023-05-15T08:22:59.517Z,4.50
2023-05-15T08:25:27.630Z,3.80
2023-05-15T08:27:55.885Z,3.90
2023-05-15T08:30:25.594Z,3.70
2023-05-15T08:32:53.693Z,3.83
2023-05-15T08:35:21.797Z,4.90
2023-05-15T08:37:49.894Z,3.90
2023-05-15T08:40:21.331Z,3.77
2023-05-15T08:42:56.082Z,2.67
2023-05-15T08:45:25.936Z,4.30
2023-05-15T08:47:55.356Z,4.00
2023-05-15T08:50:24.810Z,3.60
2023-05-15T08:52:58.205Z,3.80
2023-05-15T08:55:26.958Z,4.10
2023-05-15T08:57:56.210Z,3.60
2023-05-15T09:00:26.764Z,4.27
2023-05-15T09:02:55.760Z,3.47
2023-05-15T09:05:23.985Z,3.50
2023-05-15T09:07:54.230Z,3.80
2023-05-15T09:10:23.098Z,3.67
2023-05-15T09:12:52.953Z,4.00
2023-05-15T09:15:25.026Z,3.97
2023-05-15T09:17:56.074Z,3.73
2023-05-15T09:20:29.006Z,4.70
2023-05-15T09:22:57.520Z,3.83
2023-05-15T09:25:37.506Z,4.37
2023-05-15T09:28:06.051Z,3.30
2023-05-15T09:30:34.800Z,3.80
2023-05-15T09:33:04.865Z,3.10
2023-05-15T09:35:34.095Z,3.80
2023-05-15T09:38:03.317Z,4.03
2023-05-15T09:40:32.628Z,4.23
2023-05-15T09:43:01.150Z,4.30
2023-05-15T09:45:31.619Z,4.30
2023-05-15T09:48:02.535Z,3.90
2023-05-15T09:50:36.401Z,4.40
2023-05-15T09:53:05.013Z,4.00
2023-05-15T09:55:34.083Z,4.47
2023-05-15T09:58:06.807Z,3.43
2023-05-15T10:00:35.201Z,4.13
2023-05-15T10:03:04.589Z,4.00
2023-05-15T10:05:43.158Z,5.07
2023-05-15T10:08:12.740Z,4.80
2023-05-15T10:10:40.898Z,3.70
2023-05-15T10:13:10.465Z,4.07
2023-05-15T10:15:40.197Z,3.90
2023-05-15T10:18:09.381Z,3.90
2023-05-15T10:20:39.656Z,4.30
2023-05-15T10:23:11.522Z,4.50
2023-05-15T10:25:43.357Z,3.97
2023-05-15T10:28:12.655Z,6.00
2023-05-15T10:30:40.714Z,4.10
2023-05-15T10:33:09.344Z,3.93
2023-05-15T10:35:40.638Z,4.70
2023-05-15T10:38:09.271Z,3.70
2023-05-15T10:40:39.231Z,3.80
2023-05-15T10:43:08.210Z,3.40
2023-05-15T10:45:36.794Z,3.83
2023-05-15T10:48:07.832Z,3.90
2023-05-15T10:50:39.267Z,4.17
2023-05-15T10:53:07.532Z,4.13
2023-05-15T10:55:37.146Z,3.50
2023-05-15T10:58:09.939Z,3.10
2023-05-15T11:00:43.703Z,3.57
2023-05-15T11:03:15.651Z,3.73
2023-05-15T11:06:09.894Z,3.50
2023-05-15T11:08:38.579Z,3.23
2023-05-15T11:11:06.679Z,3.40
2023-05-15T11:14:13.372Z,3.17
2023-05-15T11:17:03.759Z,3.93
2023-05-15T11:19:55.291Z,3.43
2023-05-15T11:22:29.920Z,3.70
2023-05-15T11:25:00.765Z,3.17
2023-05-15T11:27:32.374Z,3.90
2023-05-15T11:30:12.089Z,4.10
2023-05-15T11:32:50.993Z,4.73
2023-05-15T11:35:25.024Z,5.57
2023-05-15T11:37:56.306Z,5.10
2023-05-15T11:40:26.662Z,4.10
2023-05-15T11:43:20.047Z,5.30
2023-05-15T11:45:51.051Z,4.70
2023-05-15T11:48:20.123Z,6.17
2023-05-15T11:50:48.404Z,5.20
2023-05-15T11:53:19.616Z,4.37
2023-05-15T11:55:47.809Z,2.77
2023-05-15T11:58:17.557Z,2.77
2023-05-15T12:00:47.382Z,3.67
2023-05-15T12:03:17.319Z,2.80
2023-05-15T12:05:57.462Z,2.87
2023-05-15T12:08:33.372Z,2.87
2023-05-15T12:11:02.366Z,3.37
2023-05-15T12:13:31.421Z,2.40
2023-05-15T12:16:00.354Z,2.67
2023-05-15T12:18:28.591Z,3.00
2023-05-15T12:20:56.777Z,2.67
2023-05-15T12:23:26.853Z,3.00
2023-05-15T12:25:58.753Z,2.60
2023-05-15T12:28:27.822Z,3.00
2023-05-15T12:30:56.420Z,3.73
2023-05-15T12:33:25.807Z,3.83
2023-05-15T12:35:59.966Z,3.37
2023-05-15T12:38:30.654Z,3.70
2023-05-15T12:41:00.425Z,3.43
2023-05-15T12:43:28.752Z,3.20
2023-05-15T12:45:57.866Z,2.57
2023-05-15T12:48:32.141Z,3.13
2023-05-15T12:51:07.489Z,2.37
2023-05-15T12:53:36.371Z,2.53
2023-05-15T12:56:06.427Z,2.70
2023-05-15T12:58:35.056Z,2.80
2023-05-15T13:01:04.619Z,2.87
2023-05-15T13:03:33.279Z,3.63
2023-05-15T13:06:03.900Z,3.00
2023-05-15T13:08:32.026Z,3.93
2023-05-15T13:11:01.085Z,2.93
2023-05-15T13:13:45.335Z,2.97
2023-05-15T13:16:23.693Z,3.30
2023-05-15T13:18:52.077Z,2.90
2023-05-15T13:21:20.244Z,3.00
2023-05-15T13:23:48.553Z,3.43
2023-05-15T13:26:16.601Z,3.93
2023-05-15T13:28:45.996Z,3.23
2023-05-15T13:31:14.200Z,3.33
2023-05-15T13:33:42.234Z,3.20
2023-05-15T13:36:19.598Z,3.60
2023-05-15T13:38:47.615Z,3.67
2023-05-15T13:41:15.813Z,4.30
2023-05-15T13:43:45.146Z,3.60
2023-05-15T13:46:13.120Z,5.70
2023-05-15T13:48:41.180Z,3.10
2023-05-15T13:51:09.183Z,3.37
2023-05-15T13:53:37.248Z,3.70
2023-05-15T13:56:05.653Z,3.57
2023-05-15T13:58:33.764Z,3.60
2023-05-15T14:01:06.623Z,4.20
2023-05-15T14:03:35.084Z,4.20
2023-05-15T14:06:03.238Z,3.33
2023-05-15T14:08:31.280Z,4.00
2023-05-15T14:10:59.302Z,3.90
2023-05-15T14:13:27.410Z,3.70
2023-05-15T14:15:55.908Z,3.23
2023-05-15T14:18:26.347Z,3.10
2023-05-15T14:20:54.687Z,3.20
2023-05-15T14:23:22.693Z,4.07
2023-05-15T14:25:50.690Z,3.47
2023-05-15T14:28:18.754Z,4.13
2023-05-15T14:30:46.704Z,2.87
2023-05-15T14:33:14.843Z,3.80
2023-05-15T14:35:44.314Z,3.50
2023-05-15T14:38:12.409Z,3.63
2023-05-15T14:40:42.482Z,3.73
2023-05-15T14:43:10.660Z,3.23
2023-05-15T14:45:38.800Z,3.63
2023-05-15T14:48:07.123Z,3.07
2023-05-15T14:50:35.152Z,3.73
2023-05-15T14:53:04.682Z,3.57
2023-05-15T14:55:32.693Z,3.63
2023-05-15T14:58:00.738Z,3.83
2023-05-15T15:00:28.986Z,3.70
2023-05-15T15:02:57.904Z,3.77
2023-05-15T15:05:26.051Z,4.37
2023-05-15T15:08:02.744Z,4.30
2023-05-15T15:10:33.055Z,4.10
2023-05-15T15:13:01.428Z,4.23
2023-05-15T15:15:29.931Z,3.93
2023-05-15T15:17:58.617Z,4.17
2023-05-15T15:20:28.284Z,3.63
2023-05-15T15:22:57.014Z,3.90
2023-05-15T15:25:25.696Z,3.77
2023-05-15T15:27:55.139Z,4.07
2023-05-15T15:30:23.307Z,4.47
2023-05-15T15:32:51.501Z,4.27
2023-05-15T15:35:19.542Z,4.03
2023-05-15T15:37:47.654Z,5.60
2023-05-15T15:40:15.839Z,5.27
2023-05-15T15:42:43.952Z,5.13
2023-05-15T15:45:13.393Z,5.57
2023-05-15T15:47:41.441Z,9.50
2023-05-15T15:50:09.934Z,7.17
2023-05-15T15:52:37.971Z,5.80
2023-05-15T15:55:06.900Z,5.10
2023-05-15T15:57:35.052Z,4.97
2023-05-15T16:00:03.224Z,5.73
2023-05-15T16:02:34.636Z,4.67
2023-05-15T16:05:03.083Z,5.07
2023-05-15T16:07:31.123Z,6.13
2023-05-15T16:10:10.658Z,4.97
2023-05-15T16:12:42.180Z,4.63
2023-05-15T16:15:21.568Z,5.20
2023-05-15T16:17:55.044Z,4.20
2023-05-15T16:20:23.837Z,5.50
2023-05-15T16:22:52.172Z,6.13
2023-05-15T16:25:20.169Z,5.07
2023-05-15T16:27:48.030Z,4.90
2023-05-15T16:30:16.458Z,4.20
2023-05-15T16:32:44.836Z,6.40
2023-05-15T16:35:14.355Z,5.50
2023-05-15T16:37:42.418Z,5.90
2023-05-15T16:40:11.191Z,5.80
2023-05-15T16:42:39.669Z,5.03
2023-05-15T16:45:09.179Z,5.67
2023-05-15T16:47:39.145Z,5.17
2023-05-15T16:50:09.046Z,5.17
2023-05-15T16:52:45.266Z,5.13
2023-05-15T16:55:15.332Z,4.80
2023-05-15T16:57:43.682Z,5.00
2023-05-15T17:00:13.520Z,4.67
2023-05-15T17:02:42.956Z,5.40
2023-05-15T17:05:12.121Z,4.00
2023-05-15T17:07:42.691Z,5.53
2023-05-15T17:10:12.424Z,4.93
2023-05-15T17:12:40.565Z,4.30
2023-05-15T17:15:09.910Z,5.70
2023-05-15T17:17:38.121Z,9.70
2023-05-15T17:20:07.630Z,20.43
2023-05-15T17:22:35.951Z,17.97
2023-05-15T17:25:07.116Z,8.43
2023-05-15T17:27:39.768Z,6.60
2023-05-15T17:30:10.448Z,7.20
2023-05-15T17:32:39.776Z,6.60
2023-05-15T17:35:09.208Z,5.17
2023-05-15T17:37:37.628Z,5.27
2023-05-15T17:40:08.508Z,5.03
2023-05-15T17:42:36.804Z,4.40
2023-05-15T17:45:06.635Z,4.23
2023-05-15T17:47:35.044Z,4.67
2023-05-15T17:50:03.571Z,4.73
2023-05-15T17:52:33.946Z,4.30
2023-05-15T17:55:01.956Z,4.30
2023-05-15T17:57:31.597Z,5.30
2023-05-15T17:59:59.635Z,4.50
2023-05-15T18:02:27.765Z,6.30
2023-05-15T18:04:56.204Z,9.43
2023-05-15T18:07:24.182Z,7.70
2023-05-15T18:09:52.329Z,7.17
2023-05-15T18:12:20.432Z,13.20
2023-05-15T18:14:49.865Z,11.43
2023-05-15T18:17:18.289Z,7.57
2023-05-15T18:19:46.490Z,5.57
2023-05-15T18:22:14.549Z,5.20
2023-05-15T18:24:42.682Z,5.70
2023-05-15T18:27:10.857Z,5.13
2023-05-15T18:29:42.546Z,4.60
2023-05-15T18:32:13.331Z,4.23
2023-05-15T18:34:41.513Z,4.20
2023-05-15T18:37:09.555Z,4.60
2023-05-15T18:39:38.486Z,4.77
2023-05-15T18:42:07.265Z,5.10
2023-05-15T18:44:35.967Z,5.57
2023-05-15T18:47:04.475Z,5.60
2023-05-15T18:49:33.882Z,4.50
2023-05-15T18:52:02.026Z,4.50
2023-05-15T18:54:30.107Z,4.77
2023-05-15T18:56:58.154Z,4.17
2023-05-15T18:59:26.938Z,4.73
2023-05-15T19:01:55.692Z,6.17
2023-05-15T19:04:23.976Z,5.73
2023-05-15T19:06:53.604Z,5.77
2023-05-15T19:09:21.598Z,5.30
2023-05-15T19:11:52.212Z,4.70
2023-05-15T19:14:20.462Z,4.43
2023-05-15T19:16:48.585Z,4.20
2023-05-15T19:19:16.846Z,4.07
2023-05-15T19:21:47.381Z,4.70
2023-05-15T19:24:16.931Z,4.07
2023-05-15T19:26:44.955Z,5.70
2023-05-15T19:29:13.187Z,5.43
2023-05-15T19:31:41.344Z,5.40
2023-05-15T19:34:09.485Z,6.90
2023-05-15T19:36:37.532Z,6.60
2023-05-15T19:39:05.848Z,6.43
2023-05-15T19:41:35.263Z,6.50
2023-05-15T19:44:03.973Z,5.23
2023-05-15T19:46:32.110Z,5.13
2023-05-15T19:49:00.396Z,5.37
2023-05-15T19:51:28.654Z,5.17
2023-05-15T19:53:59.247Z,4.90
2023-05-15T19:56:27.473Z,5.00
2023-05-15T19:58:56.792Z,7.30
2023-05-15T20:01:24.881Z,4.90
2023-05-15T20:03:53.060Z,4.57
2023-05-15T20:06:21.770Z,4.20
2023-05-15T20:08:50.603Z,3.93
2023-05-15T20:11:18.668Z,4.90
2023-05-15T20:13:46.722Z,3.77
2023-05-15T20:16:16.526Z,3.83
2023-05-15T20:18:47.929Z,3.67
2023-05-15T20:21:16.746Z,4.10
2023-05-15T20:23:44.738Z,4.40
2023-05-15T20:26:12.768Z,4.63
2023-05-15T20:28:41.702Z,4.20
2023-05-15T20:31:11.408Z,3.67
2023-05-15T20:33:41.516Z,5.17
2023-05-15T20:36:09.674Z,4.70
2023-05-15T20:38:38.589Z,3.33
2023-05-15T20:41:06.825Z,3.40
2023-05-15T20:43:34.825Z,3.47
2023-05-15T20:46:02.893Z,3.87
2023-05-15T20:48:30.986Z,3.30
2023-05-15T20:51:00.508Z,3.80
2023-05-15T20:53:28.873Z,2.60
2023-05-15T20:55:56.894Z,3.40
2023-05-15T20:58:24.965Z,3.30
2023-05-15T21:00:53.049Z,3.20
2023-05-15T21:03:21.252Z,3.17
2023-05-15T21:05:49.945Z,3.27
2023-05-15T21:08:19.411Z,2.97
2023-05-15T21:10:52.415Z,2.97
2023-05-15T21:13:20.415Z,2.77
2023-05-15T21:15:48.497Z,3.00
2023-05-15T21:18:16.464Z,3.07
2023-05-15T21:20:44.733Z,3.27
2023-05-15T21:23:12.871Z,3.70
2023-05-15T21:25:43.753Z,3.00
2023-05-15T21:28:11.890Z,2.53
2023-05-15T21:30:39.952Z,4.00
2023-05-15T21:33:08.080Z,3.60
2023-05-15T21:35:36.201Z,3.83
2023-05-15T21:38:04.387Z,3.50
2023-05-15T21:40:32.525Z,3.00
2023-05-15T21:43:02.111Z,3.03
2023-05-15T21:45:31.132Z,3.17
2023-05-15T21:47:59.339Z,3.60
2023-05-15T21:50:27.834Z,3.50
2023-05-15T21:52:56.043Z,3.37
2023-05-15T21:55:24.089Z,3.23
2023-05-15T21:57:52.137Z,3.63
2023-05-15T22:00:21.968Z,3.60
2023-05-15T22:02:50.101Z,3.60
2023-05-15T22:05:18.513Z,3.87
2023-05-15T22:07:46.593Z,3.37
2023-05-15T22:10:16.570Z,3.37
2023-05-15T22:12:44.847Z,4.13
2023-05-15T22:15:14.485Z,4.00
2023-05-15T22:17:44.036Z,4.13
2023-05-15T22:20:13.873Z,4.03
2023-05-15T22:22:43.946Z,3.87
2023-05-15T22:25:12.013Z,3.47
2023-05-15T22:27:40.091Z,3.90
2023-05-15T22:30:09.673Z,3.93
2023-05-15T22:32:37.757Z,3.30
2023-05-15T22:35:09.060Z,4.23
2023-05-15T22:37:37.123Z,3.13
2023-05-15T22:40:07.985Z,3.60
2023-05-15T22:42:36.140Z,3.90
2023-05-15T22:45:05.957Z,4.20
2023-05-15T22:47:34.390Z,4.30
2023-05-15T22:50:02.720Z,4.27
2023-05-15T22:52:32.153Z,4.33
2023-05-15T22:55:00.223Z,3.77
2023-05-15T22:57:28.284Z,3.07
2023-05-15T22:59:56.413Z,3.77
2023-05-15T23:02:24.510Z,3.87
2023-05-15T23:04:52.621Z,5.30
2023-05-15T23:07:20.980Z,4.70
2023-05-15T23:09:50.565Z,4.60
2023-05-15T23:12:18.626Z,4.77
2023-05-15T23:14:46.684Z,4.37
2023-05-15T23:17:16.907Z,4.33
2023-05-15T23:19:45.017Z,4.07
2023-05-15T23:22:13.195Z,4.33
2023-05-15T23:24:41.403Z,4.57
2023-05-15T23:27:10.779Z,3.87
2023-05-15T23:29:38.940Z,5.30
2023-05-15T23:32:08.099Z,4.20
2023-05-15T23:34:36.303Z,5.27
2023-05-15T23:37:04.510Z,4.30
2023-05-15T23:39:32.809Z,3.97
2023-05-15T23:42:00.987Z,4.70
2023-05-15T23:44:30.595Z,5.10
2023-05-15T23:46:58.753Z,4.10
2023-05-15T23:49:26.955Z,4.30
2023-05-15T23:51:55.037Z,4.50
2023-05-15T23:54:23.088Z,5.20
2023-05-15T23:56:51.249Z,5.33
2023-05-15T23:59:19.365Z,4.07
